createdAt,value
2022-08-05T00:00:27.445Z,2.13
2022-08-05T00:03:00.926Z,3.03
2022-08-05T00:06:05.728Z,2.40
2022-08-05T00:08:34.333Z,2.40
2022-08-05T00:11:20.745Z,2.67
2022-08-05T00:14:11.954Z,3.63
2022-08-05T00:16:52.960Z,3.78
2022-08-05T00:19:33.385Z,3.47
2022-08-05T00:22:13.137Z,3.20
2022-08-05T00:24:45.605Z,3.55
2022-08-05T00:27:35.654Z,3.65
2022-08-05T00:30:11.355Z,2.78
2022-08-05T00:32:45.006Z,3.65
2022-08-05T00:35:20.295Z,3.25
2022-08-05T00:37:54.240Z,3.00
2022-08-05T00:40:29.162Z,3.90
2022-08-05T00:43:02.881Z,2.95
2022-08-05T00:45:43.649Z,2.78
2022-08-05T00:48:27.590Z,3.65
2022-08-05T00:51:08.816Z,3.13
2022-08-05T00:54:02.412Z,4.35
2022-08-05T00:56:35.565Z,3.60
2022-08-05T00:59:11.563Z,3.15
2022-08-05T01:01:48.710Z,3.25
2022-08-05T01:04:26.992Z,4.70
2022-08-05T01:07:02.732Z,3.40
2022-08-05T01:09:38.512Z,2.70
2022-08-05T01:12:18.652Z,3.63
2022-08-05T01:15:05.426Z,3.50
2022-08-05T01:17:53.772Z,3.45
2022-08-05T01:20:48.510Z,3.17
2022-08-05T01:23:56.110Z,3.63
2022-08-05T01:26:51.230Z,2.72
2022-08-05T01:29:34.955Z,2.75
2022-08-05T01:32:12.483Z,3.25
2022-08-05T01:34:57.124Z,4.32
2022-08-05T01:37:47.873Z,2.88
2022-08-05T01:40:29.025Z,2.80
2022-08-05T01:43:03.725Z,3.88
2022-08-05T01:45:43.085Z,2.42
2022-08-05T01:48:17.309Z,3.35
2022-08-05T01:50:51.593Z,2.25
2022-08-05T01:53:57.708Z,2.67
2022-08-05T01:58:13.084Z,2.40
2022-08-05T01:59:18.241Z,2.72
2022-08-05T02:01:57.949Z,3.53
2022-08-05T02:04:35.140Z,4.20
2022-08-05T02:07:09.518Z,2.63
2022-08-05T02:09:42.565Z,4.40
2022-08-05T02:12:33.189Z,2.70
2022-08-05T02:15:24.361Z,3.95
2022-08-05T02:18:32.940Z,2.63
2022-08-05T02:21:14.758Z,2.45
2022-08-05T02:23:51.766Z,2.40
2022-08-05T02:26:33.789Z,2.28
2022-08-05T02:29:09.430Z,2.42
2022-08-05T02:31:59.392Z,3.25
2022-08-05T02:34:37.725Z,2.30
2022-08-05T02:37:15.223Z,3.15
2022-08-05T02:39:52.201Z,2.35
2022-08-05T02:42:30.695Z,2.30
2022-08-05T02:45:07.939Z,3.15
2022-08-05T02:48:07.266Z,2.35
2022-08-05T02:50:38.421Z,2.10
2022-08-05T02:53:19.631Z,2.45
2022-08-05T02:55:59.696Z,1.92
2022-08-05T02:58:34.806Z,2.58
2022-08-05T03:01:11.564Z,2.63
2022-08-05T03:04:03.158Z,3.03
2022-08-05T03:06:53.820Z,3.10
2022-08-05T03:09:37.539Z,2.80
2022-08-05T03:12:40.286Z,3.40
2022-08-05T03:15:14.081Z,2.65
2022-08-05T03:17:49.216Z,3.22
2022-08-05T03:20:27.173Z,3.55
2022-08-05T03:23:00.561Z,2.35
2022-08-05T03:26:04.879Z,2.40
2022-08-05T03:28:29.790Z,4.25
2022-08-05T03:31:04.162Z,2.35
2022-08-05T03:33:49.361Z,4.40
2022-08-05T03:36:30.302Z,4.55
2022-08-05T03:39:08.329Z,2.75
2022-08-05T03:41:46.885Z,3.25
2022-08-05T03:44:20.242Z,2.70
2022-08-05T03:46:53.579Z,2.60
2022-08-05T03:49:31.095Z,3.75
2022-08-05T03:52:50.492Z,2.92
2022-08-05T03:56:01.329Z,2.65
2022-08-05T03:58:29.385Z,2.45
2022-08-05T04:01:04.781Z,3.22
2022-08-05T04:03:39.510Z,2.45
2022-08-05T04:06:13.132Z,2.85
2022-08-05T04:08:48.632Z,3.00
2022-08-05T04:11:21.342Z,2.90
2022-08-05T04:13:56.719Z,5.10
2022-08-05T04:16:36.942Z,3.72
2022-08-05T04:19:13.449Z,2.38
2022-08-05T04:24:52.639Z,3.20
2022-08-05T04:27:33.266Z,3.90
2022-08-05T04:30:15.871Z,3.30
2022-08-05T04:32:48.766Z,3.53
2022-08-05T04:35:22.156Z,3.85
2022-08-05T04:38:00.729Z,2.53
2022-08-05T04:40:44.483Z,3.40
2022-08-05T04:43:23.421Z,4.10
2022-08-05T04:45:58.789Z,3.03
2022-08-05T04:48:32.014Z,3.33
2022-08-05T04:51:11.479Z,4.13
2022-08-05T04:53:44.418Z,3.10
2022-08-05T04:56:34.640Z,2.65
2022-08-05T04:59:22.141Z,2.88
2022-08-05T05:02:07.693Z,3.53
2022-08-05T05:05:02.365Z,3.65
2022-08-05T05:07:36.244Z,2.83
2022-08-05T05:10:09.423Z,3.22
2022-08-05T05:12:42.148Z,4.43
2022-08-05T05:15:17.545Z,4.13
2022-08-05T05:18:09.891Z,2.70
2022-08-05T05:20:47.252Z,2.88
2022-08-05T05:23:23.486Z,2.85
2022-08-05T05:25:56.181Z,3.15
2022-08-05T05:28:28.977Z,2.38
2022-08-05T05:31:01.994Z,2.47
2022-08-05T05:36:32.366Z,3.08
2022-08-05T05:39:10.859Z,2.97
2022-08-05T05:41:44.543Z,2.25
2022-08-05T05:44:36.229Z,2.58
2022-08-05T05:47:22.032Z,3.33
2022-08-05T05:49:56.921Z,5.47
2022-08-05T05:52:34.561Z,3.85
2022-08-05T05:55:13.692Z,3.25
2022-08-05T05:57:52.094Z,3.75
2022-08-05T06:00:27.842Z,3.00
2022-08-05T06:03:39.960Z,4.00
2022-08-05T06:05:58.235Z,2.80
2022-08-05T06:08:32.531Z,2.83
2022-08-05T06:11:07.505Z,2.55
2022-08-05T06:13:40.900Z,2.80
2022-08-05T06:16:28.285Z,2.42
2022-08-05T06:19:05.465Z,2.92
2022-08-05T06:21:41.702Z,1.75
2022-08-05T06:24:15.596Z,2.92
2022-08-05T06:26:52.012Z,1.60
2022-08-05T06:29:46.828Z,1.88
2022-08-05T06:32:25.411Z,1.88
2022-08-05T06:35:00.091Z,1.30
2022-08-05T06:37:57.602Z,1.48
2022-08-05T06:40:32.413Z,2.67
2022-08-05T06:43:06.614Z,2.38
2022-08-05T06:46:06.931Z,1.85
2022-08-05T06:48:56.331Z,1.70
2022-08-05T06:51:32.257Z,2.22
2022-08-05T06:54:05.210Z,2.35
2022-08-05T06:57:57.258Z,1.85
2022-08-05T07:00:41.307Z,2.42
2022-08-05T07:03:32.713Z,2.78
2022-08-05T07:06:16.045Z,1.45
2022-08-05T07:12:04.146Z,2.55
2022-08-05T07:15:34.470Z,2.00
2022-08-05T07:18:29.331Z,1.67
2022-08-05T07:21:25.606Z,2.50
2022-08-05T07:27:17.348Z,1.60
2022-08-05T07:30:40.010Z,3.33
2022-08-05T07:33:36.802Z,2.42
2022-08-05T07:39:24.637Z,1.90
2022-08-05T07:45:57.719Z,1.30
2022-08-05T07:49:01.422Z,1.30
2022-08-05T07:51:53.120Z,1.23
2022-08-05T07:57:50.595Z,1.65
2022-08-05T08:00:30.471Z,1.52
2022-08-05T08:03:18.797Z,2.20
2022-08-05T08:06:02.547Z,2.65
2022-08-05T08:08:39.858Z,1.65
2022-08-05T08:11:47.603Z,2.30
2022-08-05T08:14:37.819Z,1.20
2022-08-05T08:17:27.846Z,1.27
2022-08-05T08:20:44.573Z,1.40
2022-08-05T08:26:27.051Z,1.10
2022-08-05T08:29:45.107Z,2.22
2022-08-05T08:38:16.737Z,1.42
2022-08-05T08:41:52.511Z,0.80
2022-08-05T08:45:17.713Z,1.20
2022-08-05T08:48:07.730Z,1.30
2022-08-05T08:52:02.040Z,1.48
2022-08-05T08:54:08.091Z,1.35
2022-08-05T08:56:57.059Z,1.40
2022-08-05T09:00:02.504Z,1.67
2022-08-05T09:02:38.566Z,1.20
2022-08-05T09:05:38.368Z,0.80
2022-08-05T09:08:31.344Z,0.85
2022-08-05T09:11:18.575Z,1.77
2022-08-05T09:14:57.460Z,1.17
2022-08-05T09:17:42.459Z,0.95
2022-08-05T09:20:36.493Z,0.93
2022-08-05T09:23:21.957Z,1.92
2022-08-05T09:29:31.105Z,0.82
2022-08-05T09:32:42.299Z,1.05
2022-08-05T09:35:27.069Z,0.65
2022-08-05T09:38:29.412Z,0.70
2022-08-05T09:41:09.094Z,1.20
2022-08-05T09:43:44.093Z,1.00
2022-08-05T09:46:35.237Z,1.05
2022-08-05T09:49:40.365Z,2.67
2022-08-05T09:52:18.397Z,2.47
2022-08-05T09:55:56.545Z,0.98
2022-08-05T09:58:00.657Z,0.82
2022-08-05T10:00:40.988Z,0.80
2022-08-05T10:03:16.316Z,1.17
2022-08-05T10:06:15.451Z,0.43
2022-08-05T10:08:56.824Z,1.60
2022-08-05T10:11:56.218Z,1.02
2022-08-05T10:14:36.375Z,0.50
2022-08-05T10:17:37.622Z,0.45
2022-08-05T10:20:10.127Z,0.30
2022-08-05T10:22:48.770Z,0.65
2022-08-05T10:25:24.040Z,0.50
2022-08-05T10:28:13.435Z,0.93
2022-08-05T10:32:50.703Z,0.40
2022-08-05T10:33:54.092Z,0.50
2022-08-05T10:36:26.832Z,0.50
2022-08-05T10:39:10.301Z,0.30
2022-08-05T10:42:01.020Z,0.50
2022-08-05T10:44:35.526Z,0.73
2022-08-05T10:47:26.844Z,0.50
2022-08-05T10:50:28.068Z,0.30
2022-08-05T10:53:42.634Z,0.57
2022-08-05T10:56:25.824Z,0.60
2022-08-05T10:59:06.983Z,0.50
2022-08-05T11:01:55.046Z,0.40
2022-08-05T11:04:45.968Z,0.28
2022-08-05T11:07:32.893Z,0.77
2022-08-05T11:10:31.039Z,0.40
2022-08-05T11:13:11.356Z,0.43
2022-08-05T11:16:47.902Z,0.40
2022-08-05T11:20:16.792Z,2.25
2022-08-05T11:22:49.761Z,1.08
2022-08-05T11:26:04.586Z,0.25
2022-08-05T11:28:43.252Z,0.20
2022-08-05T11:31:19.597Z,0.55
2022-08-05T11:34:09.000Z,0.43
2022-08-05T11:36:52.817Z,0.30
2022-08-05T11:40:00.528Z,0.95
2022-08-05T11:42:43.895Z,0.50
2022-08-05T11:45:27.089Z,0.35
2022-08-05T11:48:15.947Z,0.60
2022-08-05T11:51:01.370Z,0.30
2022-08-05T11:53:40.893Z,0.50
2022-08-05T11:56:15.389Z,1.77
2022-08-05T11:58:53.384Z,1.20
2022-08-05T12:01:26.083Z,1.85
2022-08-05T12:04:02.137Z,0.82
2022-08-05T12:06:36.017Z,0.95
2022-08-05T12:09:08.714Z,0.50
2022-08-05T12:11:53.732Z,0.73
2022-08-05T12:14:36.980Z,0.70
2022-08-05T12:21:08.853Z,0.50
2022-08-05T12:23:54.410Z,0.28
2022-08-05T12:26:44.532Z,0.70
2022-08-05T12:29:29.113Z,0.20
2022-08-05T12:32:18.583Z,0.65
2022-08-05T12:34:59.563Z,0.30
2022-08-05T12:38:03.032Z,0.20
2022-08-05T12:40:44.127Z,0.22
2022-08-05T12:43:25.640Z,0.28
2022-08-05T12:46:07.032Z,0.70
2022-08-05T12:48:50.760Z,0.28
2022-08-05T12:52:13.080Z,0.43
2022-08-05T12:54:27.758Z,0.20
2022-08-05T12:57:13.006Z,0.35
2022-08-05T13:01:56.981Z,0.40
2022-08-05T13:03:01.869Z,0.38
2022-08-05T13:05:46.832Z,0.60
2022-08-05T13:08:24.275Z,0.47
2022-08-05T13:11:02.428Z,0.40
2022-08-05T13:14:05.103Z,0.25
2022-08-05T13:16:52.366Z,0.40
2022-08-05T13:19:52.317Z,0.20
2022-08-05T13:22:29.872Z,0.10
2022-08-05T13:25:18.736Z,0.25
2022-08-05T13:41:35.850Z,0.22
2022-08-05T13:44:12.669Z,0.20
2022-08-05T13:47:04.548Z,0.40
2022-08-05T13:49:38.584Z,0.10
2022-08-05T13:52:29.775Z,0.28
2022-08-05T13:55:07.747Z,0.47
2022-08-05T13:57:50.951Z,0.17
2022-08-05T14:00:27.551Z,0.40
2022-08-05T14:03:01.113Z,0.30
2022-08-05T14:06:24.393Z,0.30
2022-08-05T14:08:27.720Z,0.28
2022-08-05T14:11:20.275Z,0.25
2022-08-05T14:13:56.918Z,0.70
2022-08-05T14:16:30.418Z,0.35
2022-08-05T14:19:04.387Z,0.30
2022-08-05T14:22:09.500Z,0.40
2022-08-05T14:24:30.533Z,0.30
2022-08-05T14:27:18.228Z,0.50
2022-08-05T14:29:52.195Z,0.30
2022-08-05T14:32:28.000Z,0.50
2022-08-05T14:35:00.768Z,0.30
2022-08-05T14:37:48.198Z,0.40
2022-08-05T14:40:24.461Z,0.70
2022-08-05T14:42:57.185Z,0.10
2022-08-05T14:45:30.924Z,0.45
2022-08-05T14:48:06.090Z,0.90
2022-08-05T14:50:41.575Z,0.30
2022-08-05T14:53:15.263Z,0.32
2022-08-05T14:55:52.313Z,0.50
2022-08-05T14:58:25.141Z,1.20
2022-08-05T15:01:01.467Z,1.15
2022-08-05T15:03:39.327Z,0.57
2022-08-05T15:06:15.757Z,0.30
2022-08-05T15:08:59.887Z,1.85
2022-08-05T15:11:51.556Z,0.75
2022-08-05T15:14:34.804Z,0.20
2022-08-05T15:17:44.563Z,0.30
2022-08-05T15:20:17.229Z,0.60
2022-08-05T15:22:54.915Z,1.00
2022-08-05T15:28:24.402Z,1.33
2022-08-05T15:31:00.559Z,0.20
2022-08-05T15:34:04.643Z,0.52
2022-08-05T15:36:32.240Z,0.40
2022-08-05T15:40:41.143Z,0.80
2022-08-05T15:41:59.305Z,0.40
2022-08-05T15:44:32.174Z,0.57
2022-08-05T15:47:08.734Z,0.43
2022-08-05T15:49:56.697Z,0.10
2022-08-05T15:52:52.919Z,1.77
2022-08-05T15:56:03.203Z,0.50
2022-08-05T15:58:18.343Z,1.23
2022-08-05T16:01:11.767Z,0.65
2022-08-05T16:03:50.394Z,0.52
2022-08-05T16:06:23.692Z,0.70
2022-08-05T16:08:56.355Z,0.93
2022-08-05T16:11:42.404Z,0.93
2022-08-05T16:14:17.306Z,1.20
2022-08-05T16:16:50.574Z,9.63
2022-08-05T16:20:02.814Z,0.85
2022-08-05T16:22:15.713Z,0.60
2022-08-05T16:24:51.953Z,2.55
2022-08-05T16:27:32.089Z,1.13
2022-08-05T16:30:23.276Z,0.60
2022-08-05T16:32:59.799Z,0.70
2022-08-05T16:35:34.538Z,0.60
2022-08-05T16:38:25.030Z,1.15
2022-08-05T16:41:02.455Z,0.90
2022-08-05T16:43:56.394Z,0.38
2022-08-05T16:46:29.395Z,0.40
2022-08-05T16:49:05.700Z,2.40
2022-08-05T16:51:42.726Z,0.70
2022-08-05T16:54:28.881Z,0.88
2022-08-05T16:57:04.733Z,1.17
2022-08-05T17:00:01.464Z,1.80
2022-08-05T17:02:37.175Z,1.77
2022-08-05T17:05:09.979Z,2.10
2022-08-05T17:07:54.566Z,1.92
2022-08-05T17:10:30.464Z,0.73
2022-08-05T17:13:03.548Z,0.65
2022-08-05T17:15:48.949Z,0.75
2022-08-05T17:18:23.749Z,0.80
2022-08-05T17:20:56.787Z,0.40
2022-08-05T17:24:03.597Z,0.30
2022-08-05T17:26:24.739Z,0.57
2022-08-05T17:28:58.367Z,0.70
2022-08-05T17:31:56.558Z,0.55
2022-08-05T17:34:29.895Z,0.63
2022-08-05T17:37:32.092Z,0.52
2022-08-05T17:39:59.889Z,0.35
2022-08-05T17:42:33.098Z,0.50
2022-08-05T17:45:17.735Z,0.17
2022-08-05T17:47:56.025Z,1.85
2022-08-05T17:50:30.440Z,0.75
2022-08-05T17:53:05.453Z,1.08
2022-08-05T17:55:39.906Z,1.65
2022-08-05T17:58:14.627Z,0.73
2022-08-05T18:00:51.038Z,1.25
2022-08-05T18:03:56.449Z,0.80
2022-08-05T18:06:19.465Z,1.65
2022-08-05T18:09:04.002Z,0.60
2022-08-05T18:11:39.167Z,0.35
2022-08-05T18:14:13.250Z,0.73
2022-08-05T18:16:52.244Z,0.40
2022-08-05T18:19:26.006Z,0.10
2022-08-05T18:22:09.114Z,0.55
2022-08-05T18:24:43.668Z,0.85
2022-08-05T18:27:18.885Z,0.88
2022-08-05T18:29:54.926Z,0.98
2022-08-05T18:32:27.970Z,0.35
2022-08-05T18:35:01.243Z,0.30
2022-08-05T18:37:40.393Z,0.47
2022-08-05T18:40:34.094Z,1.10
2022-08-05T18:43:09.033Z,1.02
2022-08-05T18:45:49.213Z,1.23
2022-08-05T18:48:31.543Z,0.77
2022-08-05T18:52:04.543Z,1.95
2022-08-05T18:54:16.888Z,3.03
2022-08-05T18:56:51.298Z,1.48
2022-08-05T18:59:43.382Z,1.57
2022-08-05T19:02:36.525Z,0.90
2022-08-05T19:06:06.371Z,0.40
2022-08-05T19:08:12.244Z,1.52
2022-08-05T19:10:49.471Z,1.77
2022-08-05T19:13:22.072Z,0.60
2022-08-05T19:15:59.473Z,0.70
2022-08-05T19:18:36.295Z,1.38
2022-08-05T19:21:17.925Z,1.02
2022-08-05T19:24:05.951Z,1.42
2022-08-05T19:26:54.087Z,0.95
2022-08-05T19:29:35.992Z,0.77
2022-08-05T19:32:11.367Z,2.20
2022-08-05T19:34:55.160Z,2.20
2022-08-05T19:37:47.053Z,0.75
2022-08-05T19:40:24.165Z,0.45
2022-08-05T19:43:05.493Z,0.80
2022-08-05T19:45:39.771Z,1.10
2022-08-05T19:48:27.122Z,0.90
2022-08-05T19:50:59.736Z,0.50
2022-08-05T19:54:04.323Z,1.10
2022-08-05T19:56:32.464Z,1.58
2022-08-05T19:59:51.577Z,2.45
2022-08-05T20:02:03.085Z,0.85
2022-08-05T20:04:35.633Z,0.60
2022-08-05T20:07:13.281Z,0.75
2022-08-05T20:09:53.711Z,1.17
2022-08-05T20:12:26.988Z,0.90
2022-08-05T20:15:02.561Z,0.75
2022-08-05T20:17:35.221Z,0.73
2022-08-05T20:20:10.891Z,0.90
2022-08-05T20:22:46.830Z,1.27
2022-08-05T20:25:23.254Z,1.23
2022-08-05T20:27:55.878Z,0.63
2022-08-05T20:30:30.265Z,1.25
2022-08-05T20:33:02.984Z,1.48
2022-08-05T20:35:40.492Z,0.52
2022-08-05T20:38:27.133Z,0.80
2022-08-05T20:41:04.717Z,0.60
2022-08-05T20:43:59.132Z,0.70
2022-08-05T20:46:33.556Z,0.93
2022-08-05T20:49:06.316Z,0.57
2022-08-05T20:51:40.391Z,0.80
2022-08-05T20:54:14.045Z,1.15
2022-08-05T20:56:46.880Z,0.80
2022-08-05T20:59:27.040Z,1.27
2022-08-05T21:02:14.070Z,0.77
2022-08-05T21:07:24.208Z,1.65
2022-08-05T21:09:57.994Z,4.45
2022-08-05T21:12:30.490Z,1.73
2022-08-05T21:15:06.054Z,1.42
2022-08-05T21:17:42.032Z,0.60
2022-08-05T21:20:15.233Z,1.02
2022-08-05T21:23:07.465Z,1.15
2022-08-05T21:25:44.547Z,0.90
2022-08-05T21:28:18.437Z,0.85
2022-08-05T21:30:56.105Z,1.05
2022-08-05T21:33:39.781Z,3.38
2022-08-05T21:36:12.962Z,1.10
2022-08-05T21:38:51.846Z,1.00
2022-08-05T21:41:25.785Z,1.63
2022-08-05T21:44:05.375Z,0.80
2022-08-05T21:46:38.054Z,2.13
2022-08-05T21:49:48.069Z,1.30
2022-08-05T21:52:16.440Z,0.77
2022-08-05T21:54:55.279Z,0.70
2022-08-05T21:57:31.312Z,1.20
2022-08-05T22:00:11.141Z,1.55
2022-08-05T22:02:44.856Z,3.47
2022-08-05T22:05:18.796Z,0.93
2022-08-05T22:08:02.567Z,0.40
2022-08-05T22:10:35.537Z,1.33
2022-08-05T22:14:06.626Z,1.58
2022-08-05T22:16:15.301Z,1.52
2022-08-05T22:18:53.377Z,4.47
2022-08-05T22:21:26.050Z,2.13
2022-08-05T22:24:39.475Z,1.60
2022-08-05T22:28:08.743Z,1.25
2022-08-05T22:30:21.181Z,2.08
2022-08-05T22:32:53.708Z,0.70
2022-08-05T22:35:38.633Z,2.83
2022-08-05T22:38:20.843Z,2.05
2022-08-05T22:40:54.863Z,0.93
2022-08-05T22:43:36.688Z,1.15
2022-08-05T22:46:13.714Z,1.30
2022-08-05T22:48:55.701Z,0.90
2022-08-05T22:51:29.980Z,1.35
2022-08-05T22:54:20.760Z,1.00
2022-08-05T22:56:56.164Z,1.27
2022-08-05T22:59:43.985Z,1.15
2022-08-05T23:02:28.725Z,0.90
2022-08-05T23:05:04.942Z,1.95
2022-08-05T23:07:48.379Z,1.08
2022-08-05T23:10:23.595Z,1.27
2022-08-05T23:12:56.654Z,1.10
2022-08-05T23:15:35.278Z,1.05
2022-08-05T23:18:11.620Z,2.17
2022-08-05T23:20:44.570Z,1.17
2022-08-05T23:23:17.633Z,1.88
2022-08-05T23:25:55.209Z,1.52
2022-08-05T23:31:16.355Z,0.93
2022-08-05T23:34:06.092Z,2.38
2022-08-05T23:36:44.193Z,0.77
2022-08-05T23:39:31.772Z,0.65
2022-08-05T23:42:08.636Z,1.90
2022-08-05T23:44:47.203Z,1.17
2022-08-05T23:47:27.097Z,2.50
2022-08-05T23:49:59.856Z,1.48
2022-08-05T23:52:35.952Z,3.90
2022-08-05T23:55:10.936Z,0.98
2022-08-05T23:57:48.814Z,1.25
